Messwerte Gan

Temperatur

Temperatur
°C
1603314000 2.00 2.00
1603317600 3.00 3.00
1603321200 4.00 4.00
1603324800 5.00 5.00
1603328400 6.00 6.00
1603332000 7.00 7.00
1603335600 8.00 8.00
1603339200 9.00 9.00
1603342800 10.00 10.00
1603346400 11.00 11.00
1603350000 12.00 12.00
1603353600 13.00 13.00 32
1603357200 14.00 14.00 32
1603360800 15.00 15.00 31
1603364400 16.00 16.00 31
1603368000 17.00 17.00 30
1603371600 18.00 18.00 29
1603375200 19.00 19.00 29
1603378800 20.00 20.00 29
1603382400 21.00 21.00
1603386000 22.00 22.00 29
1603389600 23.00 23.00 29
1603393200 0.00 0.00
1603396800 1.00 1.00 28

Aktuellste Messwerte

Wettercharakter
Wetter: meist klar
Temperatur
28 °C
Feuchtigkeit
80 %
Wind
25 km/hWindrichtung: West
Luftdruck
1009 hPa
Messzeit: 23. Oktober 2020, 1.00Datenquelle: METAR

Wind

Windrichtung Böen Mittelwind
° km/h km/h
1603314000 2.00 1.00 - 2.00
1603317600 3.00 2.00 - 3.00
1603321200 4.00 3.00 - 4.00
1603324800 5.00 4.00 - 5.00
1603328400 6.00 5.00 - 6.00
1603332000 7.00 6.00 - 7.00
1603335600 8.00 7.00 - 8.00
1603339200 9.00 8.00 - 9.00
1603342800 10.00 9.00 - 10.00
1603346400 11.00 10.00 - 11.00
1603350000 12.00 11.00 - 12.00
1603353600 13.00 12.00 - 13.00 270° 25
1603357200 14.00 13.00 - 14.00 270° 25
1603360800 15.00 14.00 - 15.00 270° 25
1603364400 16.00 15.00 - 16.00 270° 30
1603368000 17.00 16.00 - 17.00 270° 30
1603371600 18.00 17.00 - 18.00 270° 25
1603375200 19.00 18.00 - 19.00 270° 25
1603378800 20.00 19.00 - 20.00 270° 25
1603382400 21.00 20.00 - 21.00
1603386000 22.00 21.00 - 22.00 260° 20
1603389600 23.00 22.00 - 23.00 270° 20
1603393200 0.00 23.00 - 0.00
1603396800 1.00 0.00 - 1.00 270° 25

Ihre Wetterstation

Fehlt Ihre Wetterstation auf unserem Portal?

Schreiben Sie an network@meteonews.ch